createdAt,value
2023-04-06T00:00:25.508Z,0
2023-04-06T00:01:25.526Z,0
2023-04-06T00:02:25.565Z,0
2023-04-06T00:03:25.541Z,0
2023-04-06T00:04:25.515Z,0
2023-04-06T00:05:25.510Z,0
2023-04-06T00:06:25.791Z,0
2023-04-06T00:07:25.514Z,0
2023-04-06T00:08:25.528Z,0
2023-04-06T00:09:25.516Z,0
2023-04-06T00:10:25.518Z,0
2023-04-06T00:11:25.531Z,0
2023-04-06T00:12:25.519Z,0
2023-04-06T00:13:25.521Z,0
2023-04-06T00:14:26.557Z,0
2023-04-06T00:15:25.525Z,0
2023-04-06T00:16:26.540Z,0
2023-04-06T00:17:25.532Z,0
2023-04-06T00:18:25.530Z,0
2023-04-06T00:19:25.533Z,0
2023-04-06T00:20:25.530Z,0
2023-04-06T00:21:25.550Z,0
2023-04-06T00:22:25.574Z,0
2023-04-06T00:23:25.535Z,0
2023-04-06T00:24:25.541Z,0
2023-04-06T00:25:25.539Z,0
2023-04-06T00:26:25.539Z,0
2023-04-06T00:27:25.534Z,0
2023-04-06T00:28:25.536Z,0
2023-04-06T00:29:25.544Z,0
2023-04-06T00:30:25.540Z,0
2023-04-06T00:31:25.715Z,0
2023-04-06T00:32:25.696Z,0
2023-04-06T00:33:25.547Z,0
2023-04-06T00:34:25.553Z,0
2023-04-06T00:35:25.542Z,0
2023-04-06T00:36:25.549Z,0
2023-04-06T00:37:25.545Z,0
2023-04-06T00:38:25.573Z,0
2023-04-06T00:39:25.546Z,0
2023-04-06T00:40:25.559Z,0
2023-04-06T00:41:25.550Z,0
2023-04-06T00:42:25.544Z,0
2023-04-06T00:43:25.787Z,0
2023-04-06T00:44:25.561Z,0
2023-04-06T00:45:25.559Z,0
2023-04-06T00:46:25.577Z,0
2023-04-06T00:47:25.567Z,0
2023-04-06T00:48:25.552Z,0
2023-04-06T00:49:25.795Z,0
2023-04-06T00:50:25.565Z,0
2023-04-06T00:51:25.553Z,0
2023-04-06T00:52:25.562Z,0
2023-04-06T00:53:25.559Z,0
2023-04-06T00:54:25.593Z,0
2023-04-06T00:55:26.591Z,0
2023-04-06T00:56:25.574Z,0
2023-04-06T00:57:25.569Z,0
2023-04-06T00:58:25.570Z,0
2023-04-06T00:59:25.651Z,0
2023-04-06T01:00:25.566Z,0
2023-04-06T01:01:25.607Z,0
2023-04-06T01:02:25.590Z,0
2023-04-06T01:03:25.574Z,0
2023-04-06T01:04:25.573Z,0
2023-04-06T01:05:25.601Z,0
2023-04-06T01:06:25.579Z,0
2023-04-06T01:07:25.576Z,0
2023-04-06T01:08:25.584Z,0
2023-04-06T01:09:25.584Z,0
2023-04-06T01:10:25.633Z,0
2023-04-06T01:11:25.597Z,0
2023-04-06T01:12:25.593Z,0
2023-04-06T01:13:25.589Z,0
2023-04-06T01:14:25.592Z,0
2023-04-06T01:15:25.595Z,0
2023-04-06T01:16:25.714Z,0
2023-04-06T01:17:25.609Z,0
2023-04-06T01:18:25.601Z,0
2023-04-06T01:19:25.598Z,0
2023-04-06T01:20:25.600Z,0
2023-04-06T01:21:25.608Z,0
2023-04-06T01:22:25.612Z,0
2023-04-06T01:23:25.845Z,0
2023-04-06T01:24:25.602Z,0
2023-04-06T01:25:25.614Z,0
2023-04-06T01:26:25.643Z,0
2023-04-06T01:27:25.614Z,0
2023-04-06T01:28:25.620Z,0
2023-04-06T01:29:25.621Z,0
2023-04-06T01:30:25.619Z,0
2023-04-06T01:31:25.655Z,0
2023-04-06T01:32:25.642Z,0
2023-04-06T01:33:25.620Z,0
2023-04-06T01:34:25.622Z,0
2023-04-06T01:35:25.642Z,0
2023-04-06T01:36:25.627Z,0
2023-04-06T01:37:25.625Z,0
2023-04-06T01:38:25.620Z,0
2023-04-06T01:39:25.623Z,0
2023-04-06T01:40:25.633Z,0
2023-04-06T01:41:25.625Z,0
2023-04-06T01:42:25.653Z,0
2023-04-06T01:43:26.654Z,0
2023-04-06T01:44:25.626Z,0
2023-04-06T01:45:25.630Z,0
2023-04-06T01:46:25.725Z,0
2023-04-06T01:47:25.695Z,0
2023-04-06T01:48:25.634Z,0
2023-04-06T01:49:25.634Z,0
2023-04-06T01:50:25.637Z,0
2023-04-06T01:51:25.635Z,0
2023-04-06T01:52:25.638Z,0
2023-04-06T01:53:25.642Z,0
2023-04-06T01:54:25.639Z,0
2023-04-06T01:55:25.644Z,0
2023-04-06T01:56:25.655Z,0
2023-04-06T01:57:25.639Z,0
2023-04-06T01:58:25.670Z,0
2023-04-06T01:59:25.685Z,0
2023-04-06T02:00:25.645Z,0
2023-04-06T02:01:25.668Z,0
2023-04-06T02:02:25.843Z,0
2023-04-06T02:03:25.650Z,0
2023-04-06T02:04:25.651Z,0
2023-04-06T02:05:25.652Z,0
2023-04-06T02:06:25.651Z,0
2023-04-06T02:07:25.653Z,0
2023-04-06T02:08:25.659Z,0
2023-04-06T02:09:25.651Z,0
2023-04-06T02:10:25.659Z,0
2023-04-06T02:11:25.661Z,0
2023-04-06T02:12:25.659Z,0
2023-04-06T02:13:25.662Z,0
2023-04-06T02:14:25.682Z,0
2023-04-06T02:15:25.655Z,0
2023-04-06T02:16:25.677Z,0
2023-04-06T02:17:25.676Z,0
2023-04-06T02:18:25.663Z,0
2023-04-06T02:19:25.666Z,0
2023-04-06T02:20:25.665Z,0
2023-04-06T02:21:25.667Z,0
2023-04-06T02:22:25.664Z,0
2023-04-06T02:23:25.675Z,0
2023-04-06T02:24:26.688Z,0
2023-04-06T02:25:25.665Z,0
2023-04-06T02:26:25.670Z,0
2023-04-06T02:27:25.669Z,0
2023-04-06T02:28:25.663Z,0
2023-04-06T02:29:25.667Z,0
2023-04-06T02:30:25.688Z,0
2023-04-06T02:31:25.680Z,0
2023-04-06T02:32:25.715Z,0
2023-04-06T02:33:25.668Z,0
2023-04-06T02:34:25.670Z,0
2023-04-06T02:35:25.935Z,0
2023-04-06T02:36:25.672Z,0
2023-04-06T02:37:26.682Z,0
2023-04-06T02:38:25.679Z,0
2023-04-06T02:39:26.688Z,0
2023-04-06T02:40:25.682Z,0
2023-04-06T02:41:25.672Z,0
2023-04-06T02:42:25.677Z,0
2023-04-06T02:43:25.675Z,0
2023-04-06T02:44:25.676Z,0
2023-04-06T02:45:25.682Z,0
2023-04-06T02:46:25.823Z,0
2023-04-06T02:47:25.695Z,0
2023-04-06T02:48:25.684Z,0
2023-04-06T02:49:25.685Z,0
2023-04-06T02:50:25.697Z,0
2023-04-06T02:51:25.683Z,0
2023-04-06T02:52:25.683Z,0
2023-04-06T02:53:25.684Z,0
2023-04-06T02:54:25.689Z,0
2023-04-06T02:55:25.708Z,0
2023-04-06T02:56:25.694Z,0
2023-04-06T02:57:25.696Z,0
2023-04-06T02:58:25.698Z,0
2023-04-06T02:59:25.769Z,0
2023-04-06T03:00:25.711Z,0
2023-04-06T03:01:25.701Z,0
2023-04-06T03:02:25.806Z,0
2023-04-06T03:03:25.779Z,0
2023-04-06T03:04:25.702Z,0
2023-04-06T03:05:25.698Z,0
2023-04-06T03:06:25.708Z,0
2023-04-06T03:07:25.700Z,0
2023-04-06T03:08:25.703Z,0
2023-04-06T03:09:25.705Z,0
2023-04-06T03:10:25.701Z,0
2023-04-06T03:11:25.701Z,0
2023-04-06T03:12:25.710Z,0
2023-04-06T03:13:25.703Z,0
2023-04-06T03:14:25.713Z,0
2023-04-06T03:15:25.715Z,0
2023-04-06T03:16:25.767Z,0
2023-04-06T03:17:25.747Z,0
2023-04-06T03:18:25.726Z,0
2023-04-06T03:19:25.713Z,0
2023-04-06T03:20:25.708Z,0
2023-04-06T03:21:25.699Z,0
2023-04-06T03:22:25.704Z,0
2023-04-06T03:23:25.702Z,0
2023-04-06T03:24:25.706Z,0
2023-04-06T03:25:25.717Z,0
2023-04-06T03:26:25.705Z,0
2023-04-06T03:27:25.717Z,0
2023-04-06T03:28:25.715Z,0
2023-04-06T03:29:25.709Z,0
2023-04-06T03:30:25.707Z,0
2023-04-06T03:31:25.730Z,0
2023-04-06T03:32:25.736Z,0
2023-04-06T03:33:25.713Z,0
2023-04-06T03:34:25.738Z,0
2023-04-06T03:35:25.742Z,0
2023-04-06T03:36:25.711Z,0
2023-04-06T03:37:25.711Z,0
2023-04-06T03:38:25.710Z,0
2023-04-06T03:39:25.716Z,0
2023-04-06T03:40:25.717Z,0
2023-04-06T03:41:25.717Z,0
2023-04-06T03:42:25.719Z,0
2023-04-06T03:43:25.717Z,0
2023-04-06T03:44:25.721Z,0
2023-04-06T03:45:25.719Z,0
2023-04-06T03:46:25.739Z,0
2023-04-06T03:47:25.752Z,0
2023-04-06T03:48:25.716Z,0
2023-04-06T03:49:25.719Z,0
2023-04-06T03:50:25.747Z,0
2023-04-06T03:51:25.721Z,0
2023-04-06T03:52:25.720Z,0
2023-04-06T03:53:25.721Z,0
2023-04-06T03:54:25.721Z,0
2023-04-06T03:55:25.724Z,0
2023-04-06T03:56:25.723Z,0
2023-04-06T03:57:25.736Z,0
2023-04-06T03:58:25.725Z,0
2023-04-06T03:59:25.755Z,0
2023-04-06T04:00:25.727Z,0
2023-04-06T04:01:25.726Z,0
2023-04-06T04:02:25.856Z,0
2023-04-06T04:03:25.755Z,0
2023-04-06T04:04:25.726Z,0
2023-04-06T04:05:25.759Z,0
2023-04-06T04:06:25.750Z,0
2023-04-06T04:07:25.725Z,0
2023-04-06T04:08:26.746Z,0
2023-04-06T04:09:26.773Z,0
2023-04-06T04:10:25.731Z,0
2023-04-06T04:11:25.728Z,0
2023-04-06T04:12:25.738Z,0
2023-04-06T04:13:25.730Z,0
2023-04-06T04:14:25.728Z,0
2023-04-06T04:15:25.733Z,0
2023-04-06T04:16:25.735Z,0
2023-04-06T04:17:25.763Z,0
2023-04-06T04:18:25.732Z,0
2023-04-06T04:19:25.729Z,2
2023-04-06T04:20:25.730Z,2
2023-04-06T04:21:25.735Z,2
2023-04-06T04:22:25.774Z,2
2023-04-06T04:23:25.727Z,2
2023-04-06T04:24:25.730Z,4
2023-04-06T04:25:25.731Z,4
2023-04-06T04:26:25.745Z,4
2023-04-06T04:27:25.737Z,4
2023-04-06T04:28:25.757Z,4
2023-04-06T04:29:25.738Z,10
2023-04-06T04:30:25.748Z,10
2023-04-06T04:31:25.777Z,10
2023-04-06T04:32:25.758Z,10
2023-04-06T04:33:25.746Z,10
2023-04-06T04:34:25.753Z,21
2023-04-06T04:35:25.780Z,21
2023-04-06T04:36:25.765Z,21
2023-04-06T04:37:26.769Z,21
2023-04-06T04:38:25.791Z,21
2023-04-06T04:39:25.777Z,39
2023-04-06T04:40:25.774Z,39
2023-04-06T04:41:25.778Z,39
2023-04-06T04:42:25.781Z,39
2023-04-06T04:43:25.779Z,39
2023-04-06T04:44:25.791Z,65
2023-04-06T04:45:27.194Z,65
2023-04-06T04:46:25.996Z,65
2023-04-06T04:47:25.965Z,65
2023-04-06T04:48:25.946Z,65
2023-04-06T04:49:26.320Z,96
2023-04-06T04:50:25.966Z,96
2023-04-06T04:51:26.320Z,96
2023-04-06T04:52:25.916Z,96
2023-04-06T04:53:25.953Z,96
2023-04-06T04:54:25.939Z,134
2023-04-06T04:55:25.922Z,134
2023-04-06T04:56:25.929Z,134
2023-04-06T04:57:25.926Z,134
2023-04-06T04:58:33.196Z,134
2023-04-06T04:59:28.996Z,177
2023-04-06T05:00:26.245Z,177
2023-04-06T05:01:26.981Z,177
2023-04-06T05:02:26.030Z,177
2023-04-06T05:03:26.070Z,177
2023-04-06T05:04:25.965Z,225
2023-04-06T05:05:27.299Z,225
2023-04-06T05:06:25.929Z,225
2023-04-06T05:07:25.967Z,225
2023-04-06T05:08:25.966Z,225
2023-04-06T05:09:25.969Z,274
2023-04-06T05:10:26.029Z,274
2023-04-06T05:11:25.968Z,274
2023-04-06T05:12:25.813Z,274
2023-04-06T05:13:25.819Z,274
2023-04-06T05:14:26.778Z,327
2023-04-06T05:15:25.817Z,327
2023-04-06T05:16:25.870Z,327
2023-04-06T05:17:25.893Z,327
2023-04-06T05:18:25.831Z,327
2023-04-06T05:19:25.830Z,384
2023-04-06T05:20:25.823Z,384
2023-04-06T05:21:27.159Z,384
2023-04-06T05:22:25.825Z,384
2023-04-06T05:23:25.835Z,384
2023-04-06T05:24:25.829Z,453
2023-04-06T05:25:25.835Z,453
2023-04-06T05:26:25.860Z,453
2023-04-06T05:27:25.830Z,453
2023-04-06T05:28:25.849Z,453
2023-04-06T05:29:25.853Z,1075
2023-04-06T05:30:25.834Z,1075
2023-04-06T05:31:25.847Z,1075
2023-04-06T05:32:25.919Z,1075
2023-04-06T05:33:25.842Z,1075
2023-04-06T05:34:25.850Z,1734
2023-04-06T05:35:25.877Z,1734
2023-04-06T05:36:25.852Z,1734
2023-04-06T05:37:25.838Z,1734
2023-04-06T05:38:25.839Z,1734
2023-04-06T05:39:25.839Z,1549
2023-04-06T05:40:25.838Z,1549
2023-04-06T05:41:25.837Z,1549
2023-04-06T05:42:25.860Z,1549
2023-04-06T05:43:25.835Z,1549
2023-04-06T05:44:25.829Z,1764
2023-04-06T05:45:25.834Z,1764
2023-04-06T05:46:25.960Z,1764
2023-04-06T05:47:25.880Z,1764
2023-04-06T05:48:25.829Z,1764
2023-04-06T05:49:25.829Z,2976
2023-04-06T05:50:25.837Z,2976
2023-04-06T05:51:25.854Z,2976
2023-04-06T05:52:25.833Z,2976
2023-04-06T05:53:25.828Z,2976
2023-04-06T05:54:25.830Z,3431
2023-04-06T05:55:25.828Z,3431
2023-04-06T05:56:25.828Z,3431
2023-04-06T05:57:25.828Z,3431
2023-04-06T05:58:25.854Z,2540
2023-04-06T05:59:25.847Z,2522
2023-04-06T06:00:25.832Z,2522
2023-04-06T06:01:25.828Z,2522
2023-04-06T06:02:25.895Z,2522
2023-04-06T06:03:25.833Z,2522
2023-04-06T06:04:25.832Z,2971
2023-04-06T06:05:25.856Z,2971
2023-04-06T06:06:25.834Z,2971
2023-04-06T06:07:25.830Z,2971
2023-04-06T06:08:25.838Z,2971
2023-04-06T06:09:25.835Z,2615
2023-04-06T06:10:25.841Z,2615
2023-04-06T06:11:25.837Z,2615
2023-04-06T06:12:25.838Z,2615
2023-04-06T06:13:25.839Z,2615
2023-04-06T06:14:25.916Z,3991
2023-04-06T06:15:25.842Z,3991
2023-04-06T06:16:25.874Z,3991
2023-04-06T06:17:25.864Z,3991
2023-04-06T06:18:25.858Z,3991
2023-04-06T06:19:25.849Z,4673
2023-04-06T06:20:25.846Z,4720
2023-04-06T06:21:25.847Z,4720
2023-04-06T06:22:25.845Z,4720
2023-04-06T06:23:25.843Z,4720
2023-04-06T06:24:25.847Z,4720
2023-04-06T06:25:25.874Z,5045
2023-04-06T06:26:25.861Z,5083
2023-04-06T06:27:25.852Z,5152
2023-04-06T06:28:25.855Z,5194
2023-04-06T06:29:25.856Z,5225
2023-04-06T06:30:25.885Z,5225
2023-04-06T06:31:25.881Z,5225
2023-04-06T06:32:25.881Z,5469
2023-04-06T06:33:25.856Z,5511
2023-04-06T06:34:25.857Z,5476
2023-04-06T06:35:25.868Z,5476
2023-04-06T06:36:25.864Z,5512
2023-04-06T06:37:25.866Z,5512
2023-04-06T06:38:25.860Z,5512
2023-04-06T06:39:25.892Z,5670
2023-04-06T06:40:25.872Z,5687
2023-04-06T06:41:25.866Z,5707
2023-04-06T06:42:25.873Z,5753
2023-04-06T06:43:25.878Z,5753
2023-04-06T06:44:25.866Z,5753
2023-04-06T06:45:25.894Z,5753
2023-04-06T06:46:26.053Z,5999
2023-04-06T06:47:25.881Z,5999
2023-04-06T06:48:25.867Z,5999
2023-04-06T06:49:25.868Z,6114
2023-04-06T06:50:25.866Z,6115
2023-04-06T06:51:26.090Z,6229
2023-04-06T06:52:25.869Z,6321
2023-04-06T06:53:25.903Z,6291
2023-04-06T06:54:25.871Z,6301
2023-04-06T06:55:25.867Z,6362
2023-04-06T06:56:25.867Z,6436
2023-04-06T06:57:25.867Z,6436
2023-04-06T06:58:25.865Z,6563
2023-04-06T06:59:25.889Z,6563
2023-04-06T07:00:25.908Z,6563
2023-04-06T07:01:25.891Z,6563
2023-04-06T07:02:25.961Z,6563
2023-04-06T07:03:25.891Z,6711
2023-04-06T07:04:25.914Z,6707
2023-04-06T07:05:28.452Z,6800
2023-04-06T07:06:25.873Z,6707
2023-04-06T07:07:25.893Z,6707
2023-04-06T07:08:25.897Z,6628
2023-04-06T07:09:25.886Z,6412
2023-04-06T07:10:25.944Z,6412
2023-04-06T07:11:25.873Z,6412
2023-04-06T07:12:25.904Z,6412
2023-04-06T07:13:25.875Z,6412
2023-04-06T07:14:25.899Z,6929
2023-04-06T07:15:25.878Z,6907
2023-04-06T07:16:25.899Z,6907
2023-04-06T07:17:25.924Z,6798
2023-04-06T07:18:25.909Z,6863
2023-04-06T07:19:25.878Z,6997
2023-04-06T07:20:25.899Z,6748
2023-04-06T07:21:25.877Z,3858
2023-04-06T07:22:25.879Z,7099
2023-04-06T07:23:25.882Z,7099
2023-04-06T07:24:25.882Z,7099
2023-04-06T07:25:26.163Z,7560
2023-04-06T07:26:25.881Z,7560
2023-04-06T07:27:25.881Z,7502
2023-04-06T07:28:25.892Z,7330
2023-04-06T07:29:25.893Z,7285
2023-04-06T07:30:25.889Z,7125
2023-04-06T07:31:25.935Z,7499
2023-04-06T07:32:25.915Z,7521
2023-04-06T07:33:25.888Z,7521
2023-04-06T07:34:25.914Z,7532
2023-04-06T07:35:25.917Z,7473
2023-04-06T07:36:25.889Z,7399
2023-04-06T07:37:25.895Z,7223
2023-04-06T07:38:25.891Z,7343
2023-04-06T07:39:25.896Z,7311
2023-04-06T07:40:25.901Z,7468
2023-04-06T07:41:25.898Z,7434
2023-04-06T07:42:25.899Z,7364
2023-04-06T07:43:25.899Z,7389
2023-04-06T07:44:25.897Z,7428
2023-04-06T07:45:25.906Z,7528
2023-04-06T07:46:25.929Z,7160
2023-04-06T07:47:25.915Z,7382
2023-04-06T07:48:25.904Z,7663
2023-04-06T07:49:25.900Z,7521
2023-04-06T07:50:25.931Z,7567
2023-04-06T07:51:25.907Z,7475
2023-04-06T07:52:25.925Z,7649
2023-04-06T07:53:25.905Z,7582
2023-04-06T07:54:25.916Z,7668
2023-04-06T07:55:25.914Z,7779
2023-04-06T07:56:25.919Z,7679
2023-04-06T07:57:25.906Z,7642
2023-04-06T07:58:25.913Z,7802
2023-04-06T07:59:25.915Z,7780
2023-04-06T08:00:25.914Z,7718
2023-04-06T08:01:25.915Z,7705
2023-04-06T08:02:25.944Z,7691
2023-04-06T08:03:26.037Z,7651
2023-04-06T08:04:25.947Z,7745
2023-04-06T08:05:25.932Z,7746
2023-04-06T08:06:25.939Z,7791
2023-04-06T08:07:25.912Z,7782
2023-04-06T08:08:25.909Z,7852
2023-04-06T08:09:25.914Z,7834
2023-04-06T08:10:25.919Z,7757
2023-04-06T08:11:25.915Z,7757
2023-04-06T08:12:25.913Z,7813
2023-04-06T08:13:25.916Z,7896
2023-04-06T08:14:25.917Z,7929
2023-04-06T08:15:25.921Z,8017
2023-04-06T08:16:25.918Z,7991
2023-04-06T08:17:25.978Z,7991
2023-04-06T08:18:25.916Z,7912
2023-04-06T08:19:25.916Z,7762
2023-04-06T08:20:25.921Z,7323
2023-04-06T08:21:25.920Z,7838
2023-04-06T08:22:25.950Z,7838
2023-04-06T08:23:25.919Z,7929
2023-04-06T08:24:25.920Z,8162
2023-04-06T08:25:25.925Z,8297
2023-04-06T08:26:25.918Z,8181
2023-04-06T08:27:25.925Z,8187
2023-04-06T08:28:25.922Z,7867
2023-04-06T08:29:25.924Z,7993
2023-04-06T08:30:25.967Z,4423
2023-04-06T08:31:25.943Z,2971
2023-04-06T08:32:25.959Z,2971
2023-04-06T08:33:25.971Z,2959
2023-04-06T08:34:25.947Z,2914
2023-04-06T08:35:25.959Z,3130
2023-04-06T08:36:25.928Z,3152
2023-04-06T08:37:25.926Z,7525
2023-04-06T08:38:25.958Z,4616
2023-04-06T08:39:25.929Z,4538
2023-04-06T08:40:25.928Z,4538
2023-04-06T08:41:25.937Z,4538
2023-04-06T08:42:25.930Z,4538
2023-04-06T08:43:25.931Z,4538
2023-04-06T08:44:25.931Z,3765
2023-04-06T08:45:25.936Z,3109
2023-04-06T08:46:25.948Z,3109
2023-04-06T08:47:25.965Z,2942
2023-04-06T08:48:25.938Z,2942
2023-04-06T08:49:25.938Z,3323
2023-04-06T08:50:25.932Z,3068
2023-04-06T08:51:25.939Z,4262
2023-04-06T08:52:25.934Z,2918
2023-04-06T08:53:25.937Z,2918
2023-04-06T08:54:25.976Z,3015
2023-04-06T08:55:25.946Z,2887
2023-04-06T08:56:25.945Z,2876
2023-04-06T08:57:25.942Z,2876
2023-04-06T08:58:35.475Z,2876
2023-04-06T08:59:25.945Z,2876
2023-04-06T09:00:25.940Z,2873
2023-04-06T09:01:25.952Z,2873
2023-04-06T09:02:26.047Z,3851
2023-04-06T09:03:26.005Z,3338
2023-04-06T09:04:26.023Z,3301
2023-04-06T09:05:25.946Z,3301
2023-04-06T09:06:25.944Z,4914
2023-04-06T09:07:25.950Z,4914
2023-04-06T09:08:25.955Z,4914
2023-04-06T09:09:25.945Z,3108
2023-04-06T09:10:25.987Z,3108
2023-04-06T09:11:25.949Z,3108
2023-04-06T09:12:25.950Z,4458
2023-04-06T09:13:25.951Z,3123
2023-04-06T09:14:25.950Z,3046
2023-04-06T09:15:25.952Z,2978
2023-04-06T09:16:25.985Z,2978
2023-04-06T09:17:25.958Z,3813
2023-04-06T09:18:25.955Z,3813
2023-04-06T09:19:25.956Z,2707
2023-04-06T09:20:25.955Z,3199
2023-04-06T09:21:26.179Z,3503
2023-04-06T09:22:25.954Z,2793
2023-04-06T09:23:25.980Z,2804
2023-04-06T09:24:25.969Z,5396
2023-04-06T09:25:25.957Z,3048
2023-04-06T09:26:25.999Z,7071
2023-04-06T09:27:25.962Z,4527
2023-04-06T09:28:25.967Z,7748
2023-04-06T09:29:25.961Z,5865
2023-04-06T09:30:25.976Z,4863
2023-04-06T09:31:26.011Z,4697
2023-04-06T09:32:26.002Z,4179
2023-04-06T09:33:25.972Z,3941
2023-04-06T09:34:25.965Z,4022
2023-04-06T09:35:26.003Z,6766
2023-04-06T09:36:25.964Z,5216
2023-04-06T09:37:25.966Z,6194
2023-04-06T09:38:25.964Z,3252
2023-04-06T09:39:25.975Z,3105
2023-04-06T09:40:25.968Z,2892
2023-04-06T09:41:25.980Z,2837
2023-04-06T09:42:26.014Z,2881
2023-04-06T09:43:25.981Z,3090
2023-04-06T09:44:25.970Z,4773
2023-04-06T09:45:25.973Z,3571
2023-04-06T09:46:25.997Z,4586
2023-04-06T09:47:28.621Z,3508
2023-04-06T09:48:27.504Z,3583
2023-04-06T09:49:25.985Z,5797
2023-04-06T09:50:25.969Z,7211
2023-04-06T09:51:25.971Z,9009
2023-04-06T09:52:25.970Z,8484
2023-04-06T09:53:25.968Z,8327
2023-04-06T09:54:25.967Z,3817
2023-04-06T09:55:25.981Z,8480
2023-04-06T09:56:25.979Z,8393
2023-04-06T09:57:25.998Z,8698
2023-04-06T09:58:25.998Z,8714
2023-04-06T09:59:26.021Z,8543
2023-04-06T10:00:25.976Z,8660
2023-04-06T10:01:26.009Z,8496
2023-04-06T10:02:26.042Z,8496
2023-04-06T10:03:26.088Z,8541
2023-04-06T10:04:25.973Z,8249
2023-04-06T10:05:25.989Z,4936
2023-04-06T10:06:25.976Z,3505
2023-04-06T10:07:25.975Z,3301
2023-04-06T10:08:25.977Z,3208
2023-04-06T10:09:25.982Z,3557
2023-04-06T10:10:26.006Z,3356
2023-04-06T10:11:25.975Z,2934
2023-04-06T10:12:25.983Z,2942
2023-04-06T10:13:25.981Z,3125
2023-04-06T10:14:26.006Z,3064
2023-04-06T10:15:25.989Z,6518
2023-04-06T10:16:26.038Z,3627
2023-04-06T10:17:25.985Z,7355
2023-04-06T10:18:25.981Z,6969
2023-04-06T10:19:25.984Z,7511
2023-04-06T10:20:25.984Z,7504
2023-04-06T10:21:26.008Z,3622
2023-04-06T10:22:25.990Z,6457
2023-04-06T10:23:25.985Z,3263
2023-04-06T10:24:25.988Z,3134
2023-04-06T10:25:25.986Z,3076
2023-04-06T10:26:25.986Z,3071
2023-04-06T10:27:26.775Z,3276
2023-04-06T10:28:26.012Z,3396
2023-04-06T10:29:26.003Z,5639
2023-04-06T10:30:26.031Z,3172
2023-04-06T10:31:26.022Z,3018
2023-04-06T10:32:26.001Z,2950
2023-04-06T10:33:25.993Z,2959
2023-04-06T10:34:25.996Z,3042
2023-04-06T10:35:25.997Z,3162
2023-04-06T10:36:25.998Z,3414
2023-04-06T10:37:25.998Z,4430
2023-04-06T10:38:26.003Z,3415
2023-04-06T10:39:25.998Z,3097
2023-04-06T10:40:26.006Z,3014
2023-04-06T10:41:26.004Z,2940
2023-04-06T10:42:26.002Z,2910
2023-04-06T10:43:26.032Z,2919
2023-04-06T10:44:26.001Z,2895
2023-04-06T10:45:26.013Z,2946
2023-04-06T10:46:26.056Z,3147
2023-04-06T10:47:26.013Z,3264
2023-04-06T10:48:26.006Z,3124
2023-04-06T10:49:27.301Z,3136
2023-04-06T10:50:26.013Z,3459
2023-04-06T10:51:26.004Z,3172
2023-04-06T10:52:26.008Z,3036
2023-04-06T10:53:26.010Z,3063
2023-04-06T10:54:26.013Z,3080
2023-04-06T10:55:26.008Z,2970
2023-04-06T10:56:26.011Z,2865
2023-04-06T10:57:26.015Z,2809
2023-04-06T10:58:26.012Z,2789
2023-04-06T10:59:26.090Z,2785
2023-04-06T11:00:30.959Z,2790
2023-04-06T11:01:26.073Z,2860
2023-04-06T11:02:26.081Z,2821
2023-04-06T11:03:26.016Z,2741
2023-04-06T11:04:26.067Z,2720
2023-04-06T11:05:26.018Z,2695
2023-04-06T11:06:26.025Z,2672
2023-04-06T11:07:26.023Z,2645
2023-04-06T11:08:26.030Z,2631
2023-04-06T11:09:26.021Z,2645
2023-04-06T11:10:26.019Z,2671
2023-04-06T11:11:26.023Z,2612
2023-04-06T11:12:26.016Z,2612
2023-04-06T11:13:26.021Z,2519
2023-04-06T11:14:26.023Z,2484
2023-04-06T11:15:26.023Z,2488
2023-04-06T11:16:26.034Z,2516
2023-04-06T11:17:26.035Z,2561
2023-04-06T11:18:26.051Z,2591
2023-04-06T11:19:26.027Z,2620
2023-04-06T11:20:26.023Z,2690
2023-04-06T11:21:26.040Z,2752
2023-04-06T11:22:26.022Z,2911
2023-04-06T11:23:26.038Z,2839
2023-04-06T11:24:26.053Z,2845
2023-04-06T11:25:26.031Z,2908
2023-04-06T11:26:26.022Z,2978
2023-04-06T11:27:26.030Z,3099
2023-04-06T11:28:26.037Z,3300
2023-04-06T11:29:26.030Z,3602
2023-04-06T11:30:26.030Z,6944
2023-04-06T11:31:26.048Z,7057
2023-04-06T11:32:26.053Z,3664
2023-04-06T11:33:26.032Z,3205
2023-04-06T11:34:26.070Z,3135
2023-04-06T11:35:26.038Z,3110
2023-04-06T11:36:26.102Z,3097
2023-04-06T11:37:26.312Z,3078
2023-04-06T11:38:26.043Z,3078
2023-04-06T11:39:26.041Z,3065
2023-04-06T11:40:26.047Z,2933
2023-04-06T11:41:26.048Z,2858
2023-04-06T11:42:26.063Z,2744
2023-04-06T11:43:26.049Z,2703
2023-04-06T11:44:26.050Z,2690
2023-04-06T11:45:26.050Z,2693
2023-04-06T11:46:26.061Z,2826
2023-04-06T11:47:26.066Z,2883
2023-04-06T11:48:26.414Z,2856
2023-04-06T11:49:26.050Z,2978
2023-04-06T11:50:26.091Z,4057
2023-04-06T11:51:26.055Z,3310
2023-04-06T11:52:26.052Z,3343
2023-04-06T11:53:26.052Z,3323
2023-04-06T11:55:26.053Z,3624
2023-04-06T11:56:26.059Z,4494
2023-04-06T11:57:26.057Z,3856
2023-04-06T11:58:26.063Z,3776
2023-04-06T11:59:26.071Z,3643
2023-04-06T12:00:26.056Z,4910
2023-04-06T12:01:26.075Z,3643
2023-04-06T12:02:26.101Z,3542
2023-04-06T12:03:26.119Z,3505
2023-04-06T12:04:26.098Z,3422
2023-04-06T12:05:26.070Z,3489
2023-04-06T12:06:26.090Z,3645
2023-04-06T12:07:26.074Z,3805
2023-04-06T12:08:26.074Z,3919
2023-04-06T12:09:26.070Z,6419
2023-04-06T12:10:26.075Z,6659
2023-04-06T12:11:26.083Z,7063
2023-04-06T12:12:26.070Z,6677
2023-04-06T12:13:26.072Z,6761
2023-04-06T12:14:26.074Z,6904
2023-04-06T12:15:26.078Z,7057
2023-04-06T12:16:26.110Z,7071
2023-04-06T12:17:26.094Z,7060
2023-04-06T12:18:26.080Z,6750
2023-04-06T12:19:26.080Z,4557
2023-04-06T12:20:27.596Z,4135
2023-04-06T12:21:26.079Z,4346
2023-04-06T12:22:26.109Z,4796
2023-04-06T12:23:26.085Z,3715
2023-04-06T12:24:26.083Z,3671
2023-04-06T12:25:26.084Z,3302
2023-04-06T12:26:26.085Z,3030
2023-04-06T12:27:26.114Z,2866
2023-04-06T12:28:26.083Z,2769
2023-04-06T12:29:26.089Z,2722
2023-04-06T12:30:26.089Z,2706
2023-04-06T12:31:26.116Z,2752
2023-04-06T12:32:26.094Z,2821
2023-04-06T12:33:26.165Z,2937
2023-04-06T12:34:26.083Z,3084
2023-04-06T12:35:26.088Z,3087
2023-04-06T12:36:26.105Z,3091
2023-04-06T12:37:26.091Z,3192
2023-04-06T12:38:26.115Z,3543
2023-04-06T12:39:26.090Z,3280
2023-04-06T12:40:26.091Z,3764
2023-04-06T12:41:26.112Z,4538
2023-04-06T12:42:26.088Z,5416
2023-04-06T12:43:26.091Z,6976
2023-04-06T12:44:26.909Z,5263
2023-04-06T12:45:26.091Z,4721
2023-04-06T12:46:26.110Z,5330
2023-04-06T12:47:26.139Z,5895
2023-04-06T12:48:26.099Z,5902
2023-04-06T12:49:26.098Z,4708
2023-04-06T12:50:26.099Z,6628
2023-04-06T12:51:26.099Z,6634
2023-04-06T12:52:26.098Z,6879
2023-04-06T12:53:26.100Z,7052
2023-04-06T12:54:26.135Z,6880
2023-04-06T12:55:26.110Z,7401
2023-04-06T12:56:26.105Z,7251
2023-04-06T12:57:26.109Z,6739
2023-04-06T12:58:26.107Z,6730
2023-04-06T12:59:26.286Z,7071
2023-04-06T13:00:26.158Z,6963
2023-04-06T13:01:26.207Z,6909
2023-04-06T13:02:26.150Z,4718
2023-04-06T13:03:26.151Z,3928
2023-04-06T13:04:26.118Z,5006
2023-04-06T13:05:27.133Z,5328
2023-04-06T13:06:26.118Z,5328
2023-04-06T13:07:26.119Z,6268
2023-04-06T13:08:26.129Z,3751
2023-04-06T13:09:26.120Z,3815
2023-04-06T13:10:26.143Z,3815
2023-04-06T13:11:27.848Z,3815
2023-04-06T13:12:26.121Z,3815
2023-04-06T13:13:26.128Z,3815
2023-04-06T13:14:26.128Z,3371
2023-04-06T13:15:26.124Z,4130
2023-04-06T13:16:26.156Z,4130
2023-04-06T13:17:26.153Z,3273
2023-04-06T13:18:26.133Z,3229
2023-04-06T13:19:26.137Z,3146
2023-04-06T13:20:26.140Z,3161
2023-04-06T13:21:26.136Z,3161
2023-04-06T13:22:26.153Z,3161
2023-04-06T13:23:26.143Z,3161
2023-04-06T13:24:26.143Z,6468
2023-04-06T13:25:26.142Z,4210
2023-04-06T13:26:26.172Z,4125
2023-04-06T13:27:26.160Z,6304
2023-04-06T13:28:26.144Z,6026
2023-04-06T13:29:26.148Z,6028
2023-04-06T13:30:26.150Z,5711
2023-04-06T13:31:26.158Z,4609
2023-04-06T13:32:26.165Z,7125
2023-04-06T13:33:26.150Z,5478
2023-04-06T13:34:26.151Z,7063
2023-04-06T13:35:26.153Z,4073
2023-04-06T13:36:26.176Z,3562
2023-04-06T13:37:26.157Z,5325
2023-04-06T13:38:26.162Z,6509
2023-04-06T13:39:26.162Z,6005
2023-04-06T13:40:26.161Z,4923
2023-04-06T13:41:26.187Z,5724
2023-04-06T13:42:26.205Z,4234
2023-04-06T13:43:26.159Z,6775
2023-04-06T13:44:26.164Z,5525
2023-04-06T13:45:26.160Z,6263
2023-04-06T13:46:26.206Z,6452
2023-04-06T13:47:26.189Z,4435
2023-04-06T13:48:26.175Z,4891
2023-04-06T13:49:26.165Z,5139